Barhom II — 5IM534 — position and weather

sailwx.info

Track history (hours):
 
Tides and Currents Weather Stations Pressure Air Temp Water Temp Dewpoint Dewpoint Depression Visibility Wind Speed Wind Dir Waves Ship Positions

Barhom II

Last reported at 2016-Sep-07 04:17 UTC. Time now 2016-Sep-25 14:04 UTC.
Position N 41°06' E 001°16'.
Warning: this ship's position is 18 days out of date.

Length 83 m.

Type: Cargo ship. MMSI: 677043400.

Date/timePositionNaut miles runAvg speedWind from/ knotsBaromVisibWave heightAir tempDewpointWater temp
2016-Sep-07 04:17N 41°06' E 001°16'0 0.1
2016-Sep-07 03:11N 41°06' E 001°16'0 0.0
2016-Sep-06 15:05N 41°06' E 001°16'0 0.0
2016-Sep-06 13:11N 41°06' E 001°16'0 0.0
2016-Sep-06 04:29N 41°06' E 001°16'0 0.0
2016-Sep-06 00:05N 41°06' E 001°16'0 0.0
2016-Sep-05 23:05N 41°06' E 001°16'0 0.0
2016-Sep-05 16:29N 41°06' E 001°16'0 0.0
2016-Sep-05 13:05N 41°06' E 001°16'0 0.0
2016-Sep-05 11:20N 41°06' E 001°16'0 0.0
2016-Sep-05 10:23N 41°06' E 001°16'0 0.0
2016-Sep-05 09:29N 41°06' E 001°16'0 0.0
2016-Sep-05 08:17N 41°06' E 001°16'0 0.0
2016-Sep-05 06:29N 41°06' E 001°16'0 0.0
2016-Sep-05 04:29N 41°06' E 001°16'0 0.0
2016-Sep-05 01:29N 41°06' E 001°16'0 0.0
2016-Sep-04 23:19N 41°06' E 001°16'5 6.2
2016-Sep-04 22:33N 41°03' E 001°21'1110.8
2016-Sep-04 21:33N 40°56' E 001°32'1110.8
2016-Sep-04 20:33N 40°51' E 001°44'1110.6
2016-Sep-04 19:33N 40°45' E 001°56'1110.7
2016-Sep-04 18:33N 40°40' E 002°08'1110.6
2016-Sep-04 17:33N 40°34' E 002°20'1110.5
2016-Sep-04 16:33N 40°29' E 002°32'1010.2
2016-Sep-04 15:33N 40°23' E 002°43'10 9.9
2016-Sep-04 14:33N 40°18' E 002°54'10 9.7
2016-Sep-04 13:33N 40°13' E 003°05'1010.0
2016-Sep-04 12:32N 40°08' E 003°17'1410.5
2016-Sep-04 11:12N 40°00' E 003°32'2910.6
2016-Sep-04 08:26N 39°45' E 004°05'23210.6
2016-Sep-03 10:33N 38°15' E 008°40'1010.3
2016-Sep-03 09:33N 38°11' E 008°52'1510.1
2016-Sep-03 08:05N 38°06' E 009°10'710.2
2016-Sep-03 07:23N 38°03' E 009°18'333 9.6
2016-Sep-01 20:33N 33°27' E 013°08'3210.7
2016-Sep-01 17:32N 32°55' E 013°13'2 0.1
2016-Aug-31 16:28N 32°54' E 013°11'80 2.0
2016-Aug-30 00:23N 34°12' E 012°48'910.6
2016-Aug-29 23:33N 34°20' E 012°44'1110.7
2016-Aug-29 22:33N 34°30' E 012°39'1110.6
2016-Aug-29 21:33N 34°40' E 012°35'1110.7
2016-Aug-29 20:33N 34°50' E 012°30'1010.4
2016-Aug-29 19:33N 34°59' E 012°25'1110.7
2016-Aug-29 18:33N 35°09' E 012°21'1110.8
2016-Aug-29 17:33N 35°19' E 012°15'1110.7
2016-Aug-29 16:33N 35°29' E 012°10'1111.1
2016-Aug-29 15:33N 35°40' E 012°06'1111.0
2016-Aug-29 14:33N 35°50' E 012°01'1110.6
2016-Aug-29 13:33N 35°60' E 011°56'1010.5
2016-Aug-29 12:33N 36°09' E 011°51'1210.5
2016-Aug-29 11:24N 36°21' E 011°45'910.5
2016-Aug-29 10:33N 36°29' E 011°41'1110.7
2016-Aug-29 09:33N 36°39' E 011°36'8 8.5
2016-Aug-29 08:33N 36°47' E 011°32'5210.1
2016-Aug-29 03:26N 37°26' E 010°51'  
Track history (hours):
 
Tides and Currents Weather Stations Pressure Air Temp Water Temp Dewpoint Dewpoint Depression Visibility Wind Speed Wind Dir Waves Ship Positions

Barhom II

Last reported at 2016-Sep-07 04:17 UTC. Time now 2016-Sep-25 14:04 UTC.
Position N 41°06' E 001°16'.
Warning: this ship's position is 18 days out of date.

Length 83 m.

Type: Cargo ship. MMSI: 677043400.

Date/timePositionNaut miles runAvg speedWind from/ knotsBaromVisibWave heightAir tempDewpointWater temp
2016-Sep-07 04:17N 41°06' E 001°16'0 0.1
2016-Sep-07 03:11N 41°06' E 001°16'0 0.0
2016-Sep-06 15:05N 41°06' E 001°16'0 0.0
2016-Sep-06 13:11N 41°06' E 001°16'0 0.0
2016-Sep-06 04:29N 41°06' E 001°16'0 0.0
2016-Sep-06 00:05N 41°06' E 001°16'0 0.0
2016-Sep-05 23:05N 41°06' E 001°16'0 0.0
2016-Sep-05 16:29N 41°06' E 001°16'0 0.0
2016-Sep-05 13:05N 41°06' E 001°16'0 0.0
2016-Sep-05 11:20N 41°06' E 001°16'0 0.0
2016-Sep-05 10:23N 41°06' E 001°16'0 0.0
2016-Sep-05 09:29N 41°06' E 001°16'0 0.0
2016-Sep-05 08:17N 41°06' E 001°16'0 0.0
2016-Sep-05 06:29N 41°06' E 001°16'0 0.0
2016-Sep-05 04:29N 41°06' E 001°16'0 0.0
2016-Sep-05 01:29N 41°06' E 001°16'0 0.0
2016-Sep-04 23:19N 41°06' E 001°16'5 6.2
2016-Sep-04 22:33N 41°03' E 001°21'1110.8
2016-Sep-04 21:33N 40°56' E 001°32'1110.8
2016-Sep-04 20:33N 40°51' E 001°44'1110.6
2016-Sep-04 19:33N 40°45' E 001°56'1110.7
2016-Sep-04 18:33N 40°40' E 002°08'1110.6
2016-Sep-04 17:33N 40°34' E 002°20'1110.5
2016-Sep-04 16:33N 40°29' E 002°32'1010.2
2016-Sep-04 15:33N 40°23' E 002°43'10 9.9
2016-Sep-04 14:33N 40°18' E 002°54'10 9.7
2016-Sep-04 13:33N 40°13' E 003°05'1010.0
2016-Sep-04 12:32N 40°08' E 003°17'1410.5
2016-Sep-04 11:12N 40°00' E 003°32'2910.6
2016-Sep-04 08:26N 39°45' E 004°05'23210.6
2016-Sep-03 10:33N 38°15' E 008°40'1010.3
2016-Sep-03 09:33N 38°11' E 008°52'1510.1
2016-Sep-03 08:05N 38°06' E 009°10'710.2
2016-Sep-03 07:23N 38°03' E 009°18'333 9.6
2016-Sep-01 20:33N 33°27' E 013°08'3210.7
2016-Sep-01 17:32N 32°55' E 013°13'2 0.1
2016-Aug-31 16:28N 32°54' E 013°11'80 2.0
2016-Aug-30 00:23N 34°12' E 012°48'910.6
2016-Aug-29 23:33N 34°20' E 012°44'1110.7
2016-Aug-29 22:33N 34°30' E 012°39'1110.6
2016-Aug-29 21:33N 34°40' E 012°35'1110.7
2016-Aug-29 20:33N 34°50' E 012°30'1010.4
2016-Aug-29 19:33N 34°59' E 012°25'1110.7
2016-Aug-29 18:33N 35°09' E 012°21'1110.8
2016-Aug-29 17:33N 35°19' E 012°15'1110.7
2016-Aug-29 16:33N 35°29' E 012°10'1111.1
2016-Aug-29 15:33N 35°40' E 012°06'1111.0
2016-Aug-29 14:33N 35°50' E 012°01'1110.6
2016-Aug-29 13:33N 35°60' E 011°56'1010.5
2016-Aug-29 12:33N 36°09' E 011°51'1210.5
2016-Aug-29 11:24N 36°21' E 011°45'910.5
2016-Aug-29 10:33N 36°29' E 011°41'1110.7
2016-Aug-29 09:33N 36°39' E 011°36'8 8.5
2016-Aug-29 08:33N 36°47' E 011°32'5210.1
2016-Aug-29 03:26N 37°26' E 010°51'  

Dump ship's entire track history